createdAt,value
2022-08-26T00:01:57.986Z,19.60
2022-08-26T00:04:27.071Z,19.50
2022-08-26T00:06:55.862Z,19.50
2022-08-26T00:09:26.598Z,19.50
2022-08-26T00:11:55.475Z,19.40
2022-08-26T00:14:29.525Z,19.40
2022-08-26T00:17:00.118Z,19.30
2022-08-26T00:19:28.351Z,19.20
2022-08-26T00:21:56.816Z,19.30
2022-08-26T00:24:26.461Z,19.20
2022-08-26T00:26:54.847Z,19.20
2022-08-26T00:29:23.229Z,19.20
2022-08-26T00:31:51.921Z,19.20
2022-08-26T00:34:20.188Z,19.10
2022-08-26T00:36:51.864Z,19.10
2022-08-26T00:39:21.078Z,19.10
2022-08-26T00:41:50.734Z,19.00
2022-08-26T00:44:20.224Z,19.00
2022-08-26T00:46:52.527Z,19.00
2022-08-26T00:49:27.789Z,18.90
2022-08-26T00:52:02.054Z,18.90
2022-08-26T00:54:35.486Z,18.80
2022-08-26T00:57:16.529Z,18.80
2022-08-26T00:59:47.676Z,18.80
2022-08-26T01:02:21.038Z,18.70
2022-08-26T01:04:55.799Z,18.60
2022-08-26T01:07:27.532Z,18.60
2022-08-26T01:09:59.873Z,18.60
2022-08-26T01:12:32.883Z,18.50
2022-08-26T01:15:02.661Z,18.50
2022-08-26T01:17:33.863Z,18.50
2022-08-26T01:20:08.730Z,18.50
2022-08-26T01:22:47.223Z,18.40
2022-08-26T01:25:16.222Z,18.40
2022-08-26T01:27:45.002Z,18.30
2022-08-26T01:30:18.651Z,18.30
2022-08-26T01:32:47.997Z,18.30
2022-08-26T01:35:16.268Z,18.30
2022-08-26T01:37:49.262Z,18.30
2022-08-26T01:40:22.061Z,18.30
2022-08-26T01:42:51.005Z,18.30
2022-08-26T01:45:24.488Z,18.30
2022-08-26T01:47:57.151Z,18.20
2022-08-26T01:50:30.622Z,18.20
2022-08-26T01:53:07.831Z,18.20
2022-08-26T01:55:39.476Z,18.20
2022-08-26T01:58:14.431Z,18.20
2022-08-26T02:00:44.184Z,18.20
2022-08-26T02:03:21.444Z,18.20
2022-08-26T02:05:53.843Z,18.10
2022-08-26T02:08:28.418Z,18.10
2022-08-26T02:10:57.242Z,18.00
2022-08-26T02:13:30.116Z,18.00
2022-08-26T02:16:00.812Z,18.00
2022-08-26T02:18:31.508Z,18.00
2022-08-26T02:21:00.402Z,18.00
2022-08-26T02:23:30.363Z,17.90
2022-08-26T02:26:04.850Z,17.90
2022-08-26T02:28:38.893Z,17.80
2022-08-26T02:31:07.981Z,17.80
2022-08-26T02:33:36.425Z,17.80
2022-08-26T02:36:05.613Z,17.80
2022-08-26T02:38:37.444Z,17.70
2022-08-26T02:41:08.626Z,17.70
2022-08-26T02:43:38.533Z,17.60
2022-08-26T02:46:07.419Z,17.60
2022-08-26T02:48:35.662Z,17.60
2022-08-26T02:51:04.746Z,17.60
2022-08-26T02:53:35.596Z,17.60
2022-08-26T02:56:08.316Z,17.50
2022-08-26T02:58:36.818Z,17.50
2022-08-26T03:01:05.797Z,17.40
2022-08-26T03:03:35.262Z,17.40
2022-08-26T03:06:03.393Z,17.30
2022-08-26T03:08:31.681Z,17.30
2022-08-26T03:11:01.578Z,17.30
2022-08-26T03:13:31.761Z,17.30
2022-08-26T03:16:02.998Z,17.30
2022-08-26T03:18:31.711Z,17.30
2022-08-26T03:21:00.500Z,17.30
2022-08-26T03:23:28.925Z,17.30
2022-08-26T03:25:57.322Z,17.30
2022-08-26T03:28:27.236Z,17.30
2022-08-26T03:30:57.227Z,17.20
2022-08-26T03:33:26.477Z,17.20
2022-08-26T03:35:55.653Z,17.30
2022-08-26T03:38:26.218Z,17.20
2022-08-26T03:40:56.298Z,17.20
2022-08-26T03:43:26.857Z,17.20
2022-08-26T03:45:56.648Z,17.20
2022-08-26T03:48:25.762Z,17.10
2022-08-26T03:50:54.191Z,17.10
2022-08-26T03:53:24.238Z,17.10
2022-08-26T03:55:52.687Z,17.10
2022-08-26T03:58:21.582Z,17.10
2022-08-26T04:00:55.378Z,17.20
2022-08-26T04:03:40.364Z,17.20
2022-08-26T04:06:09.114Z,17.10
2022-08-26T04:08:37.773Z,17.10
2022-08-26T04:11:07.459Z,17.10
2022-08-26T04:13:35.882Z,17.20
2022-08-26T04:16:04.579Z,17.20
2022-08-26T04:18:37.063Z,17.20
2022-08-26T04:21:08.009Z,17.20
2022-08-26T04:23:47.518Z,17.20
2022-08-26T04:26:16.943Z,17.20
2022-08-26T04:28:45.316Z,17.20
2022-08-26T04:31:14.697Z,17.10
2022-08-26T04:33:45.933Z,17.10
2022-08-26T04:36:15.528Z,17.10
2022-08-26T04:38:45.783Z,17.10
2022-08-26T04:41:15.656Z,17.10
2022-08-26T04:43:45.613Z,17.20
2022-08-26T04:46:17.248Z,17.20
2022-08-26T04:48:47.875Z,17.20
2022-08-26T04:51:16.535Z,17.30
2022-08-26T04:53:44.776Z,17.30
2022-08-26T04:56:13.491Z,17.40
2022-08-26T04:58:42.277Z,17.50
2022-08-26T05:01:10.603Z,17.50
2022-08-26T05:03:38.998Z,17.60
2022-08-26T05:06:12.290Z,17.70
2022-08-26T05:08:41.041Z,17.80
2022-08-26T05:11:10.307Z,17.90
2022-08-26T05:13:39.568Z,17.90
2022-08-26T05:16:11.587Z,18.00
2022-08-26T05:18:43.482Z,18.20
2022-08-26T05:21:21.319Z,18.30
2022-08-26T05:23:51.726Z,18.40
2022-08-26T05:26:23.206Z,18.50
2022-08-26T05:28:54.655Z,18.70
2022-08-26T05:31:26.187Z,18.80
2022-08-26T05:33:54.817Z,19.10
2022-08-26T05:36:26.858Z,19.30
2022-08-26T05:38:55.511Z,19.50
2022-08-26T05:41:36.089Z,19.70
2022-08-26T05:44:07.368Z,20.00
2022-08-26T05:46:36.807Z,20.20
2022-08-26T05:49:12.680Z,20.30
2022-08-26T05:51:46.420Z,20.50
2022-08-26T05:54:22.022Z,20.60
2022-08-26T05:56:51.512Z,20.80
2022-08-26T05:59:21.398Z,20.90
2022-08-26T06:01:54.561Z,21.00
2022-08-26T06:04:26.760Z,21.10
2022-08-26T06:06:58.647Z,21.20
2022-08-26T06:09:27.719Z,21.30
2022-08-26T06:11:58.751Z,21.40
2022-08-26T06:14:27.034Z,21.60
2022-08-26T06:16:55.245Z,21.60
2022-08-26T06:19:23.618Z,21.70
2022-08-26T06:21:54.733Z,21.80
2022-08-26T06:24:42.205Z,21.90
2022-08-26T06:27:13.705Z,22.00
2022-08-26T06:29:42.810Z,22.10
2022-08-26T06:32:11.031Z,22.10
2022-08-26T06:34:39.218Z,22.20
2022-08-26T06:37:08.803Z,22.30
2022-08-26T06:39:41.252Z,22.40
2022-08-26T06:42:10.867Z,22.50
2022-08-26T06:44:40.852Z,22.60
2022-08-26T06:47:09.336Z,22.80
2022-08-26T06:49:38.195Z,22.90
2022-08-26T06:52:07.993Z,23.00
2022-08-26T06:54:41.512Z,23.10
2022-08-26T06:57:11.192Z,23.10
2022-08-26T06:59:39.861Z,23.20
2022-08-26T07:02:08.759Z,23.30
2022-08-26T07:04:41.679Z,23.40
2022-08-26T07:07:14.102Z,23.40
2022-08-26T07:09:43.703Z,23.50
2022-08-26T07:12:11.840Z,23.60
2022-08-26T07:14:40.014Z,23.60
2022-08-26T07:17:13.941Z,23.60
2022-08-26T07:19:43.204Z,23.70
2022-08-26T07:22:11.418Z,23.90
2022-08-26T07:24:42.374Z,24.00
2022-08-26T07:27:15.814Z,24.10
2022-08-26T07:29:44.831Z,24.30
2022-08-26T07:32:20.273Z,24.40
2022-08-26T07:34:51.693Z,24.50
2022-08-26T07:37:19.969Z,24.60
2022-08-26T07:39:48.621Z,24.80
2022-08-26T07:42:20.431Z,24.90
2022-08-26T07:44:49.115Z,24.90
2022-08-26T07:47:25.062Z,25.00
2022-08-26T07:49:56.211Z,25.10
2022-08-26T07:52:27.073Z,25.20
2022-08-26T07:54:56.618Z,25.40
2022-08-26T07:57:26.327Z,25.50
2022-08-26T07:59:55.217Z,25.50
2022-08-26T08:02:25.102Z,25.50
2022-08-26T08:04:54.486Z,25.50
2022-08-26T08:07:38.777Z,25.50
2022-08-26T08:10:13.602Z,25.50
2022-08-26T08:12:43.862Z,25.60
2022-08-26T08:15:13.856Z,25.70
2022-08-26T08:17:43.734Z,25.90
2022-08-26T08:20:13.529Z,26.10
2022-08-26T08:22:43.287Z,26.30
2022-08-26T08:25:12.313Z,26.40
2022-08-26T08:27:45.098Z,26.50
2022-08-26T08:30:14.563Z,26.60
2022-08-26T08:32:44.344Z,26.70
2022-08-26T08:35:15.978Z,26.90
2022-08-26T08:37:46.218Z,26.90
2022-08-26T08:40:18.174Z,27.00
2022-08-26T08:42:55.725Z,27.10
2022-08-26T08:45:33.338Z,27.00
2022-08-26T08:48:07.837Z,27.00
2022-08-26T08:50:40.736Z,27.00
2022-08-26T08:53:15.104Z,27.10
2022-08-26T08:55:57.098Z,27.10
2022-08-26T08:58:36.399Z,27.10
2022-08-26T09:01:09.878Z,27.10
2022-08-26T09:03:51.359Z,27.30
2022-08-26T09:06:20.507Z,27.50
2022-08-26T09:08:51.526Z,27.80
2022-08-26T09:11:21.289Z,28.00
2022-08-26T09:13:53.018Z,28.10
2022-08-26T09:16:51.665Z,28.00
2022-08-26T09:19:29.984Z,27.90
2022-08-26T09:21:58.785Z,27.90
2022-08-26T09:24:38.411Z,28.00
2022-08-26T09:27:11.453Z,28.10
2022-08-26T09:30:12.449Z,28.30
2022-08-26T09:32:41.384Z,28.50
2022-08-26T09:35:23.747Z,28.70
2022-08-26T09:38:24.998Z,28.90
2022-08-26T09:40:59.396Z,29.20
2022-08-26T09:43:29.137Z,29.50
2022-08-26T09:46:13.754Z,29.40
2022-08-26T09:48:43.614Z,29.20
2022-08-26T09:51:29.493Z,29.20
2022-08-26T09:54:00.875Z,29.30
2022-08-26T09:56:32.083Z,29.40
2022-08-26T09:59:02.572Z,29.60
2022-08-26T10:01:36.846Z,29.80
2022-08-26T10:04:10.243Z,29.90
2022-08-26T10:06:44.278Z,30.10
2022-08-26T10:09:17.165Z,30.30
2022-08-26T10:11:50.606Z,30.50
2022-08-26T10:15:09.573Z,30.70
2022-08-26T10:18:12.429Z,30.80
2022-08-26T10:20:52.352Z,30.80
2022-08-26T10:23:25.365Z,30.70
2022-08-26T10:25:59.238Z,30.80
2022-08-26T10:28:34.731Z,30.90
2022-08-26T10:31:08.031Z,31.00
2022-08-26T10:33:39.230Z,31.00
2022-08-26T10:36:39.308Z,31.00
2022-08-26T10:39:23.482Z,30.90
2022-08-26T10:41:56.871Z,30.60
2022-08-26T10:44:27.555Z,30.30
2022-08-26T10:47:02.665Z,30.20
2022-08-26T10:49:32.326Z,30.30
2022-08-26T10:52:04.497Z,30.40
2022-08-26T10:54:44.960Z,30.60
2022-08-26T10:57:18.043Z,30.80
2022-08-26T10:59:56.653Z,30.90
2022-08-26T11:02:31.385Z,30.90
2022-08-26T11:05:53.786Z,30.70
2022-08-26T11:08:30.793Z,30.60
2022-08-26T11:11:01.101Z,30.70
2022-08-26T11:14:04.361Z,30.70
2022-08-26T11:16:42.910Z,30.80
2022-08-26T11:19:58.997Z,31.10
2022-08-26T11:22:28.843Z,31.40
2022-08-26T11:25:15.322Z,31.50
2022-08-26T11:28:05.490Z,31.40
2022-08-26T11:30:41.107Z,31.30
2022-08-26T11:33:09.525Z,31.10
2022-08-26T11:35:50.116Z,31.10
2022-08-26T11:38:29.885Z,31.00
2022-08-26T11:41:10.594Z,30.90
2022-08-26T11:43:41.454Z,31.10
2022-08-26T11:46:11.590Z,31.50
2022-08-26T11:48:42.302Z,31.90
2022-08-26T11:51:40.172Z,32.10
2022-08-26T11:54:16.010Z,32.20
2022-08-26T11:56:47.152Z,32.30
2022-08-26T11:59:20.817Z,32.50
2022-08-26T12:01:53.169Z,32.60
2022-08-26T12:04:29.596Z,32.70
2022-08-26T12:07:00.630Z,33.00
2022-08-26T12:09:32.948Z,33.50
2022-08-26T12:12:12.681Z,33.60
2022-08-26T12:14:41.617Z,33.80
2022-08-26T12:17:12.293Z,34.20
2022-08-26T12:19:40.946Z,34.80
2022-08-26T12:22:17.929Z,35.10
2022-08-26T12:24:53.222Z,35.40
2022-08-26T12:27:24.346Z,35.10
2022-08-26T12:30:04.328Z,34.50
2022-08-26T12:32:36.082Z,34.00
2022-08-26T12:37:38.429Z,33.30
2022-08-26T12:40:35.291Z,33.10
2022-08-26T12:43:40.861Z,32.90
2022-08-26T12:46:11.793Z,32.80
2022-08-26T12:48:43.885Z,32.80
2022-08-26T12:51:22.773Z,32.70
2022-08-26T12:53:51.188Z,32.60
2022-08-26T12:56:27.751Z,32.60
2022-08-26T12:59:22.073Z,32.50
2022-08-26T13:01:50.439Z,32.30
2022-08-26T13:04:42.594Z,32.30
2022-08-26T13:07:16.353Z,32.30
2022-08-26T13:09:44.602Z,32.30
2022-08-26T13:12:24.917Z,32.20
2022-08-26T13:14:53.470Z,32.20
2022-08-26T13:17:22.279Z,32.10
2022-08-26T13:19:50.510Z,32.20
2022-08-26T13:22:22.956Z,32.20
2022-08-26T13:24:54.183Z,32.30
2022-08-26T13:27:26.185Z,32.50
2022-08-26T13:29:57.168Z,32.20
2022-08-26T13:32:27.491Z,31.80
2022-08-26T13:34:58.592Z,31.50
2022-08-26T13:37:34.495Z,31.50
2022-08-26T13:40:05.640Z,31.70
2022-08-26T13:42:35.639Z,31.80
2022-08-26T13:45:04.990Z,31.60
2022-08-26T13:47:33.554Z,31.40
2022-08-26T13:50:02.031Z,31.10
2022-08-26T13:52:31.196Z,30.80
2022-08-26T13:55:00.785Z,30.70
2022-08-26T13:57:30.057Z,30.50
2022-08-26T14:00:00.218Z,30.40
2022-08-26T14:02:28.943Z,30.20
2022-08-26T14:04:57.103Z,29.90
2022-08-26T14:07:25.309Z,29.60
2022-08-26T14:09:53.833Z,29.30
2022-08-26T14:12:22.069Z,28.90
2022-08-26T14:14:50.272Z,28.70
2022-08-26T14:17:22.563Z,28.40
2022-08-26T14:19:52.191Z,28.10
2022-08-26T14:22:23.696Z,27.80
2022-08-26T14:24:52.019Z,27.60
2022-08-26T14:27:20.124Z,27.20
2022-08-26T14:29:48.390Z,26.90
2022-08-26T14:32:23.245Z,26.60
2022-08-26T14:34:51.741Z,26.30
2022-08-26T14:37:20.274Z,26.00
2022-08-26T14:39:48.715Z,25.70
2022-08-26T14:42:20.932Z,25.40
2022-08-26T14:44:53.374Z,25.10
2022-08-26T14:47:23.202Z,24.70
2022-08-26T14:49:51.457Z,24.40
2022-08-26T14:52:19.756Z,24.20
2022-08-26T14:54:46.888Z,23.90
2022-08-26T14:57:17.243Z,23.60
2022-08-26T14:59:49.685Z,23.50
2022-08-26T15:02:32.704Z,23.30
2022-08-26T15:05:04.049Z,23.30
2022-08-26T15:07:32.770Z,23.10
2022-08-26T15:10:01.993Z,23.00
2022-08-26T15:12:30.165Z,23.00
2022-08-26T15:14:58.372Z,22.90
2022-08-26T15:17:26.925Z,22.90
2022-08-26T15:19:55.354Z,23.00
2022-08-26T15:22:25.361Z,22.90
2022-08-26T15:24:58.026Z,22.90
2022-08-26T15:27:26.691Z,22.80
2022-08-26T15:29:55.097Z,22.80
2022-08-26T15:32:23.325Z,22.70
2022-08-26T15:34:53.013Z,22.60
2022-08-26T15:37:21.226Z,22.40
2022-08-26T15:39:52.016Z,22.20
2022-08-26T15:42:20.882Z,22.00
2022-08-26T15:44:49.880Z,21.80
2022-08-26T15:47:18.362Z,21.60
2022-08-26T15:49:46.634Z,21.50
2022-08-26T15:52:17.122Z,21.30
2022-08-26T15:54:45.469Z,21.20
2022-08-26T15:57:17.588Z,21.10
2022-08-26T15:59:48.103Z,21.00
2022-08-26T16:02:16.389Z,20.90
2022-08-26T16:04:44.616Z,20.90
2022-08-26T16:07:13.700Z,20.90
2022-08-26T16:09:42.183Z,20.90
2022-08-26T16:12:10.475Z,20.90
2022-08-26T16:14:42.191Z,20.90
2022-08-26T16:17:10.420Z,20.90
2022-08-26T16:19:38.674Z,20.80
2022-08-26T16:22:08.060Z,20.70
2022-08-26T16:24:36.749Z,20.60
2022-08-26T16:27:05.402Z,20.50
2022-08-26T16:29:33.706Z,20.50
2022-08-26T16:32:08.552Z,20.40
2022-08-26T16:34:37.243Z,20.30
2022-08-26T16:37:15.551Z,20.20
2022-08-26T16:39:44.939Z,20.20
2022-08-26T16:42:13.501Z,20.10
2022-08-26T16:44:45.323Z,20.00
2022-08-26T16:47:15.978Z,20.00
2022-08-26T16:49:44.288Z,20.00
2022-08-26T16:52:14.055Z,19.90
2022-08-26T16:54:42.374Z,19.80
2022-08-26T16:57:12.126Z,19.80
2022-08-26T16:59:41.595Z,19.80
2022-08-26T17:02:10.573Z,19.80
2022-08-26T17:04:41.205Z,19.70
2022-08-26T17:07:14.410Z,19.80
2022-08-26T17:09:43.091Z,19.70
2022-08-26T17:12:11.351Z,19.70
2022-08-26T17:14:39.603Z,19.60
2022-08-26T17:17:08.345Z,19.70
2022-08-26T17:19:40.755Z,19.70
2022-08-26T17:22:16.982Z,19.60
2022-08-26T17:24:45.192Z,19.70
2022-08-26T17:27:13.471Z,19.70
2022-08-26T17:29:41.734Z,19.70
2022-08-26T17:32:10.019Z,19.80
2022-08-26T17:34:38.248Z,19.60
2022-08-26T17:37:06.487Z,19.60
2022-08-26T17:39:37.255Z,19.60
2022-08-26T17:42:05.977Z,19.60
2022-08-26T17:44:35.018Z,19.60
2022-08-26T17:47:03.294Z,19.60
2022-08-26T17:49:31.639Z,19.50
2022-08-26T17:52:00.492Z,19.60
2022-08-26T17:54:28.963Z,19.50
2022-08-26T17:57:01.181Z,19.50
2022-08-26T17:59:30.635Z,19.50
2022-08-26T18:01:59.649Z,19.50
2022-08-26T18:04:28.105Z,19.40
2022-08-26T18:06:56.272Z,19.40
2022-08-26T18:09:31.117Z,19.50
2022-08-26T18:12:01.238Z,19.40
2022-08-26T18:14:29.828Z,19.40
2022-08-26T18:16:58.031Z,19.40
2022-08-26T18:19:26.604Z,19.40
2022-08-26T18:21:54.861Z,19.40
2022-08-26T18:24:23.336Z,19.40
2022-08-26T18:26:51.567Z,19.50
2022-08-26T18:29:21.743Z,19.40
2022-08-26T18:31:49.929Z,19.40
2022-08-26T18:34:19.432Z,19.40
2022-08-26T18:36:48.394Z,19.50
2022-08-26T18:39:19.108Z,19.50
2022-08-26T18:41:53.409Z,19.50
2022-08-26T18:44:23.757Z,19.50
2022-08-26T18:46:52.864Z,19.50
2022-08-26T18:49:22.631Z,19.50
2022-08-26T18:51:52.327Z,19.50
2022-08-26T18:56:49.592Z,19.50
2022-08-26T18:59:18.254Z,19.50
2022-08-26T19:01:50.521Z,19.50
2022-08-26T19:04:19.231Z,19.50
2022-08-26T19:11:31.124Z,19.50
2022-08-26T19:14:00.448Z,19.50
2022-08-26T19:16:29.666Z,19.50
2022-08-26T19:19:00.982Z,19.50
2022-08-26T19:21:30.163Z,19.50
2022-08-26T19:23:59.441Z,19.50
2022-08-26T19:26:29.218Z,19.40
2022-08-26T19:28:57.779Z,19.40
2022-08-26T19:31:51.141Z,19.30
2022-08-26T19:34:20.890Z,19.30
2022-08-26T19:36:54.044Z,19.30
2022-08-26T19:39:23.533Z,19.20
2022-08-26T19:41:54.257Z,19.20
2022-08-26T19:44:41.757Z,19.20
2022-08-26T19:47:14.152Z,19.20
2022-08-26T19:49:45.726Z,19.20
2022-08-26T19:52:15.255Z,19.20
2022-08-26T19:54:44.756Z,19.20
2022-08-26T19:57:12.963Z,19.10
2022-08-26T19:59:41.598Z,19.20
2022-08-26T20:02:11.273Z,19.20
2022-08-26T20:04:40.779Z,19.20
2022-08-26T20:07:12.904Z,19.20
2022-08-26T20:09:43.545Z,19.20
2022-08-26T20:12:21.014Z,19.20
2022-08-26T20:15:16.772Z,19.20
2022-08-26T20:17:44.953Z,19.20
2022-08-26T20:20:33.226Z,19.20
2022-08-26T20:23:05.140Z,19.20
2022-08-26T20:25:34.050Z,19.30
2022-08-26T20:28:02.602Z,19.40
2022-08-26T20:30:30.870Z,19.40
2022-08-26T20:33:54.680Z,19.40
2022-08-26T20:36:25.848Z,19.50
2022-08-26T20:38:56.332Z,19.60
2022-08-26T20:41:25.710Z,19.60
2022-08-26T20:43:54.521Z,19.60
2022-08-26T20:46:25.096Z,19.60
2022-08-26T20:48:54.172Z,19.60
2022-08-26T20:51:23.508Z,19.60
2022-08-26T20:53:52.081Z,19.60
2022-08-26T20:56:24.295Z,19.60
2022-08-26T20:58:53.359Z,19.60
2022-08-26T21:01:24.009Z,19.50
2022-08-26T21:03:53.296Z,19.50
2022-08-26T21:06:22.209Z,19.50
2022-08-26T21:08:51.568Z,19.50
2022-08-26T21:11:23.004Z,19.40
2022-08-26T21:14:16.687Z,19.40
2022-08-26T21:16:41.259Z,19.40
2022-08-26T21:19:12.221Z,19.40
2022-08-26T21:21:40.718Z,19.40
2022-08-26T21:24:09.841Z,19.40
2022-08-26T21:26:39.863Z,19.30
2022-08-26T21:29:09.778Z,19.30
2022-08-26T21:31:43.552Z,19.30
2022-08-26T21:34:14.342Z,19.30
2022-08-26T21:36:42.530Z,19.30
2022-08-26T21:39:12.199Z,19.30
2022-08-26T21:41:42.969Z,19.20
2022-08-26T21:44:12.824Z,19.20
2022-08-26T21:46:41.413Z,19.20
2022-08-26T21:49:12.212Z,19.20
2022-08-26T21:51:43.074Z,19.10
2022-08-26T21:54:12.148Z,19.10
2022-08-26T21:56:44.524Z,19.00
2022-08-26T21:59:13.139Z,19.00
2022-08-26T22:01:41.377Z,19.00
2022-08-26T22:04:10.888Z,19.00
2022-08-26T22:06:43.400Z,19.00
2022-08-26T22:09:13.217Z,18.90
2022-08-26T22:11:43.567Z,19.00
2022-08-26T22:14:12.729Z,18.90
2022-08-26T22:16:41.149Z,18.90
2022-08-26T22:19:17.530Z,18.90
2022-08-26T22:21:46.455Z,18.80
2022-08-26T22:24:15.345Z,18.80
2022-08-26T22:26:45.476Z,18.80
2022-08-26T22:29:14.562Z,18.80
2022-08-26T22:31:43.314Z,18.70
2022-08-26T22:34:15.100Z,18.80
2022-08-26T22:36:45.526Z,18.80
2022-08-26T22:39:14.986Z,18.80
2022-08-26T22:41:48.459Z,18.70
2022-08-26T22:44:17.507Z,18.80
2022-08-26T22:46:46.158Z,18.80
2022-08-26T22:49:16.897Z,18.80
2022-08-26T22:51:45.115Z,18.80
2022-08-26T22:54:13.827Z,18.80
2022-08-26T22:56:42.436Z,18.80
2022-08-26T22:59:12.602Z,18.80
2022-08-26T23:01:43.199Z,18.80
2022-08-26T23:04:11.766Z,18.80
2022-08-26T23:06:42.991Z,18.80
2022-08-26T23:09:12.353Z,18.70
2022-08-26T23:11:43.988Z,18.70
2022-08-26T23:14:13.825Z,18.70
2022-08-26T23:16:43.072Z,18.70
2022-08-26T23:19:13.335Z,18.70
2022-08-26T23:21:41.875Z,18.60
2022-08-26T23:24:11.106Z,18.60
2022-08-26T23:26:40.816Z,18.60
2022-08-26T23:29:10.550Z,18.60
2022-08-26T23:31:41.754Z,18.60
2022-08-26T23:34:29.386Z,18.50
2022-08-26T23:36:58.976Z,18.50
2022-08-26T23:39:28.462Z,18.50
2022-08-26T23:41:57.384Z,18.50
2022-08-26T23:44:26.680Z,18.40
2022-08-26T23:46:56.645Z,18.40
2022-08-26T23:49:26.494Z,18.50
2022-08-26T23:52:24.289Z,18.50
2022-08-26T23:54:52.804Z,18.50
2022-08-26T23:57:23.156Z,18.60
2022-08-26T23:59:51.494Z,18.60
